Time;durP1;ratioP1;P1;durP2;ratioP2;P2;SDS_P1;SDS_P2;PMS_P1;PMS_P2;Temp;Humidity;BMP_temperature;BMP_pressure;BME280_temperature;BME280_humidity;BME280_pressure;Samples;Min_cycle;Max_cycle;Signal;HPM_P1;HPM_P2
2022/08/16 00:01:54;;;;;;;1999.90;999.90;;;;;;;23.97;47.64;94873.84;5015464;28;20038;-71
2022/08/16 00:04:19;;;;;;;1999.90;999.90;;;;;;;24.06;47.98;94890.50;5011241;28;20038;-71
2022/08/16 00:06:45;;;;;;;1999.90;999.90;;;;;;;23.97;48.07;94894.81;5026538;28;20025;-68
2022/08/16 00:09:10;;;;;;;1999.90;999.90;;;;;;;23.74;48.31;94855.31;5029639;28;20039;-68
2022/08/16 00:11:36;;;;;;;1999.90;999.90;;;;;;;24.11;48.10;94908.34;5032200;28;20478;-71
2022/08/16 00:14:07;;;;;;;1999.90;999.90;;;;;;;24.08;48.71;94911.81;4999171;28;20479;-70
2022/08/16 00:16:32;;;;;;;1999.90;999.90;;;;;;;23.76;48.37;94868.53;5018812;28;20108;-70
2022/08/16 00:18:59;;;;;;;1999.90;999.90;;;;;;;23.88;48.42;94878.94;4999450;28;20167;-70
2022/08/16 00:21:25;;;;;;;1999.90;999.90;;;;;;;23.97;48.50;94905.69;5031908;28;20040;-70
2022/08/16 00:23:52;;;;;;;1999.90;999.90;;;;;;;23.83;48.59;94882.84;4995910;28;20076;-68
2022/08/16 00:26:17;;;;;;;1999.90;999.90;;;;;;;23.85;48.76;94893.28;4998677;28;20033;-68
2022/08/16 00:28:42;;;;;;;1999.90;999.90;;;;;;;23.90;48.48;94890.16;5017579;28;20030;-71
2022/08/16 00:31:08;;;;;;;1999.90;999.90;;;;;;;23.84;48.62;94884.38;5022106;28;20029;-69
2022/08/16 00:33:33;;;;;;;1999.90;999.90;;;;;;;23.90;48.99;94894.81;5010308;28;20049;-70
2022/08/16 00:35:58;;;;;;;1999.90;999.90;;;;;;;23.93;48.72;94888.63;5012356;28;20053;-70
2022/08/16 00:38:24;;;;;;;1999.90;999.90;;;;;;;23.84;48.62;94887.09;5003707;28;20034;-69
2022/08/16 00:40:54;;;;;;;1999.90;999.90;;;;;;;23.85;48.75;94888.66;5011897;28;20036;-69
2022/08/16 00:43:21;;;;;;;1999.90;999.90;;;;;;;23.96;48.55;94906.84;5007531;28;20026;-69
2022/08/16 00:46:05;;;;;;;1999.90;999.90;;;;;;;23.74;48.70;94879.75;4979596;28;20030;-69
2022/08/16 00:48:31;;;;;;;1999.90;999.90;;;;;;;23.83;48.92;94893.69;5002663;28;20064;-69
2022/08/16 00:50:56;;;;;;;1999.90;999.90;;;;;;;23.19;48.93;94807.06;5026124;28;20060;-70
2022/08/16 00:53:22;;;;;;;1999.90;999.90;;;;;;;23.85;49.03;94907.69;4991445;28;20025;-69
2022/08/16 00:55:52;;;;;;;1999.90;999.90;;;;;;;23.70;49.22;94875.50;5011527;28;20026;-70
2022/08/16 00:58:19;;;;;;;1999.90;999.90;;;;;;;23.91;48.82;94904.53;4989924;28;20526;-69
2022/08/16 01:00:46;;;;;;;1999.90;999.90;;;;;;;23.27;48.97;94805.06;5005616;28;20707;-69
2022/08/16 01:03:14;;;;;;;1999.90;999.90;;;;;;;23.92;48.79;94900.66;5010336;28;20181;-70
2022/08/16 01:05:40;;;;;;;1999.90;999.90;;;;;;;23.45;48.74;94832.16;5011798;28;20095;-70
2022/08/16 01:08:07;;;;;;;1999.90;999.90;;;;;;;23.47;49.05;94832.53;5012221;28;20033;-70
2022/08/16 01:10:34;;;;;;;1999.90;999.90;;;;;;;23.82;49.11;94889.44;5013663;28;20053;-70
2022/08/16 01:13:09;;;;;;;1999.90;999.90;;;;;;;23.55;48.78;94863.94;5002767;28;20162;-69
2022/08/16 01:15:38;;;;;;;1999.90;999.90;;;;;;;23.76;49.30;94879.38;4992322;28;20039;-70
2022/08/16 01:18:07;;;;;;;1999.90;999.90;;;;;;;23.61;48.55;94857.69;4992038;28;20160;-69
2022/08/16 01:20:39;;;;;;;1999.90;999.90;;;;;;;23.86;49.03;94900.28;5011366;28;20049;-71
2022/08/16 01:23:10;;;;;;;;;;;;;;;23.83;48.74;94896.41;5026571;28;20033;-67
2022/08/16 01:25:43;;;;;;;1999.90;999.90;;;;;;;23.84;48.66;94897.94;5012979;28;19996;-70
2022/08/16 01:28:14;;;;;;;1999.90;999.90;;;;;;;23.83;48.66;94901.06;5020094;28;20486;-70
2022/08/16 01:30:43;;;;;;;1999.90;999.90;;;;;;;23.57;48.93;94864.28;4992709;28;20033;-69
2022/08/16 01:33:09;;;;;;;1999.90;999.90;;;;;;;23.51;48.75;94855.03;4992293;28;20022;-69
2022/08/16 01:35:39;;;;;;;1999.90;999.90;;;;;;;23.72;49.04;94892.97;5014813;23;20486;-70
2022/08/16 01:38:19;;;;;;;1999.90;999.90;;;;;;;23.64;48.84;94883.28;5022652;28;20097;-70
2022/08/16 01:40:46;;;;;;;1999.90;999.90;;;;;;;23.53;49.03;94882.53;4988701;28;20421;-69
2022/08/16 01:43:12;;;;;;;1999.90;999.90;;;;;;;23.49;48.95;94873.63;4989517;28;20023;-69
2022/08/16 01:45:37;;;;;;;1999.90;999.90;;;;;;;23.48;49.13;94880.22;4988660;28;20498;-70
2022/08/16 01:48:03;;;;;;;1999.90;999.90;;;;;;;23.45;48.99;94872.88;4990296;28;20038;-69
2022/08/16 01:50:29;;;;;;;1999.90;999.90;;;;;;;23.35;48.97;94855.47;4991135;28;20034;-69
2022/08/16 01:52:54;;;;;;;1999.90;999.90;;;;;;;23.51;49.21;94882.16;4989120;28;20033;-71
2022/08/16 01:55:22;;;;;;;1999.90;999.90;;;;;;;23.39;49.09;94872.53;4990891;28;20022;-70
2022/08/16 01:57:48;;;;;;;1999.90;999.90;;;;;;;23.29;49.28;94859.75;4990909;28;20030;-70
2022/08/16 02:00:14;;;;;;;1999.90;999.90;;;;;;;23.41;49.54;94880.25;4989197;28;20026;-70
2022/08/16 02:02:41;;;;;;;1999.90;999.90;;;;;;;23.29;49.35;94868.66;4989021;28;20058;-70
2022/08/16 02:05:07;;;;;;;1999.90;999.90;;;;;;;23.27;49.42;94865.56;4989942;28;20085;-69
2022/08/16 02:07:32;;;;;;;1999.90;999.90;;;;;;;23.37;49.63;94885.69;4990492;28;20808;-70
2022/08/16 02:09:58;;;;;;;1999.90;999.90;;;;;;;23.21;49.46;94861.69;4990461;28;20033;-70
2022/08/16 02:12:24;;;;;;;1999.90;999.90;;;;;;;23.08;49.82;94864.06;4989524;28;20022;-71
2022/08/16 02:14:49;;;;;;;1999.90;999.90;;;;;;;22.93;50.02;94840.84;4988965;28;20089;-70
2022/08/16 02:17:15;;;;;;;1999.90;999.90;;;;;;;23.09;50.22;94870.25;4989426;28;20493;-69
2022/08/16 02:19:42;;;;;;;1999.90;999.90;;;;;;;22.94;50.42;94855.16;4988795;28;20042;-72
2022/08/16 02:22:10;;;;;;;1999.90;999.90;;;;;;;22.91;50.98;94866.78;4989169;28;20045;-69
2022/08/16 02:24:37;;;;;;;1999.90;999.90;;;;;;;22.54;50.91;94824.56;4988635;28;20037;-69
2022/08/16 02:27:03;;;;;;;1999.90;999.90;;;;;;;22.73;51.23;94864.06;4989591;28;20072;-70
2022/08/16 02:29:28;;;;;;;1999.90;999.90;;;;;;;22.42;51.35;94827.66;4988291;28;20065;-70
2022/08/16 02:31:54;;;;;;;1999.90;999.90;;;;;;;22.43;51.44;94848.97;4989425;28;20030;-69
2022/08/16 02:34:20;;;;;;;1999.90;999.90;;;;;;;22.54;51.50;94862.53;4988707;28;20030;-70
2022/08/16 02:36:46;;;;;;;1999.90;999.90;;;;;;;22.35;51.77;94852.81;4989932;28;20384;-70
2022/08/16 02:39:13;;;;;;;1999.90;999.90;;;;;;;22.38;52.05;94860.19;4988105;28;20030;-70
2022/08/16 02:41:41;;;;;;;1999.90;999.90;;;;;;;22.29;52.28;94867.91;4989044;28;20419;-70
2022/08/16 02:44:10;;;;;;;1999.90;999.90;;;;;;;22.08;52.28;94849.69;4988785;28;20567;-69
2022/08/16 02:46:35;;;;;;;1999.90;999.90;;;;;;;22.12;52.73;94860.56;4987725;28;20100;-70
2022/08/16 02:49:02;;;;;;;1999.90;999.90;;;;;;;21.93;53.23;94850.81;4989356;28;20479;-70
2022/08/16 02:51:27;;;;;;;1999.90;999.90;;;;;;;21.76;53.40;94841.47;4989143;28;20039;-70
2022/08/16 02:53:53;;;;;;;1999.90;999.90;;;;;;;21.84;53.83;94872.81;4987113;28;20046;-69
2022/08/16 02:56:19;;;;;;;1999.90;999.90;;;;;;;21.54;54.05;94822.44;4988930;28;20468;-70
2022/08/16 02:58:46;;;;;;;1999.90;999.90;;;;;;;21.68;54.21;94851.50;4988254;28;20030;-69
2022/08/16 03:01:14;;;;;;;1999.90;999.90;;;;;;;21.69;54.41;94863.09;4988266;28;20479;-71
2022/08/16 03:03:39;;;;;;;1999.90;999.90;;;;;;;21.36;54.64;94827.03;4991225;28;20038;-70
2022/08/16 03:06:05;;;;;;;1999.90;999.90;;;;;;;21.58;55.07;94875.81;4989032;28;20186;-70
2022/08/16 03:08:31;;;;;;;1999.90;999.90;;;;;;;21.33;54.94;94829.72;4990109;28;20050;-69
2022/08/16 03:10:57;;;;;;;1999.90;999.90;;;;;;;21.46;55.20;94863.41;4988082;28;20064;-69
2022/08/16 03:13:23;;;;;;;1999.90;999.90;;;;;;;21.28;55.27;94845.13;4989144;28;20026;-69
2022/08/16 03:15:48;;;;;;;1999.90;999.90;;;;;;;21.45;55.30;94872.69;4987353;28;20019;-70
2022/08/16 03:18:13;;;;;;;1999.90;999.90;;;;;;;21.29;55.86;94860.22;4989668;28;20109;-70
2022/08/16 03:20:39;;;;;;;1999.90;999.90;;;;;;;21.16;55.77;94841.97;4989257;28;20041;-70
2022/08/16 03:23:06;;;;;;;1999.90;999.90;;;;;;;21.25;56.15;94869.47;5004821;28;20038;-70
2022/08/16 03:25:32;;;;;;;1999.90;999.90;;;;;;;21.21;55.71;94864.03;4988379;28;20027;-70
2022/08/16 03:27:58;;;;;;;1999.90;999.90;;;;;;;21.27;55.77;94880.69;4988367;28;20019;-70
2022/08/16 03:30:27;;;;;;;1999.90;999.90;;;;;;;21.29;55.99;94889.97;4987810;28;20109;-69
2022/08/16 03:32:53;;;;;;;1999.90;999.90;;;;;;;21.15;55.89;94870.19;4988116;28;20031;-69
2022/08/16 03:35:22;;;;;;;1999.90;999.90;;;;;;;21.28;55.76;94893.81;4989096;28;20085;-69
2022/08/16 03:37:48;;;;;;;1999.90;999.90;;;;;;;21.05;55.91;94862.78;4988803;28;20045;-69
2022/08/16 03:40:14;;;;;;;1999.90;999.90;;;;;;;21.11;56.14;94872.84;4989912;28;20471;-70
2022/08/16 03:42:40;;;;;;;1999.90;999.90;;;;;;;20.97;55.97;94857.31;4988722;28;20042;-70
2022/08/16 03:45:07;;;;;;;1999.90;999.90;;;;;;;21.14;56.02;94877.53;4986622;28;20030;-69
2022/08/16 03:47:34;;;;;;;1999.90;999.90;;;;;;;21.17;55.61;94889.50;4986621;28;20033;-70
2022/08/16 03:49:59;;;;;;;1999.90;999.90;;;;;;;21.05;55.92;94877.09;4990226;28;20084;-70
2022/08/16 03:52:25;;;;;;;1999.90;999.90;;;;;;;21.02;55.84;94885.94;4992921;28;20022;-69
2022/08/16 03:54:52;;;;;;;1999.90;999.90;;;;;;;20.88;55.92;94866.91;4991592;28;20038;-70
2022/08/16 03:57:17;;;;;;;1999.90;999.90;;;;;;;21.04;55.95;94897.16;4993149;28;20122;-70
2022/08/16 03:59:42;;;;;;;1999.90;999.90;;;;;;;20.49;56.19;94810.66;4990022;28;20110;-70
2022/08/16 04:02:08;;;;;;;1999.90;999.90;;;;;;;20.74;55.94;94851.38;4991965;28;20034;-69
2022/08/16 04:04:35;;;;;;;1999.90;999.90;;;;;;;20.92;56.19;94870.41;4991586;28;20501;-69
2022/08/16 04:07:05;;;;;;;1999.90;999.90;;;;;;;20.72;56.06;94842.84;4991640;28;20037;-70
2022/08/16 04:09:32;;;;;;;1999.90;999.90;;;;;;;20.96;56.34;94884.75;4991380;28;20106;-69
2022/08/16 04:11:58;;;;;;;1999.90;999.90;;;;;;;20.75;56.02;94847.53;4991138;28;20100;-69
2022/08/16 04:14:25;;;;;;;1999.90;999.90;;;;;;;20.95;55.47;94878.56;4989529;28;20124;-69
2022/08/16 04:16:50;;;;;;;1999.90;999.90;;;;;;;20.97;55.70;94873.53;4991940;28;20033;-70
2022/08/16 04:19:16;;;;;;;1999.90;999.90;;;;;;;20.86;55.90;94858.41;4990660;28;20026;-70
2022/08/16 04:21:41;;;;;;;1999.90;999.90;;;;;;;20.94;55.68;94885.13;4993073;28;20026;-70
2022/08/16 04:24:07;;;;;;;1999.90;999.90;;;;;;;20.67;55.68;94832.41;4990676;28;20030;-70
2022/08/16 04:26:32;;;;;;;1999.90;999.90;;;;;;;20.53;55.83;94816.88;4992499;28;20030;-70
2022/08/16 04:29:01;;;;;;;1999.90;999.90;;;;;;;21.00;55.99;94888.25;4991407;28;20105;-68
2022/08/16 04:31:26;;;;;;;1999.90;999.90;;;;;;;20.49;56.06;94813.38;4989806;28;20415;-69
2022/08/16 04:33:52;;;;;;;1999.90;999.90;;;;;;;20.79;55.97;94856.44;4991410;28;20026;-69
2022/08/16 04:36:18;;;;;;;1999.90;999.90;;;;;;;20.90;56.05;94867.31;4992522;28;20085;-69
2022/08/16 04:38:44;;;;;;;1999.90;999.90;;;;;;;20.99;55.80;94898.28;4990929;28;20026;-69
2022/08/16 04:41:09;;;;;;;1999.90;999.90;;;;;;;20.70;56.35;94842.47;4992088;28;20033;-70
2022/08/16 04:43:37;;;;;;;1999.90;999.90;;;;;;;21.00;56.16;94877.44;4991218;28;20610;-69
2022/08/16 04:46:03;;;;;;;1999.90;999.90;;;;;;;21.08;56.09;94889.06;4991499;28;20041;-69
2022/08/16 04:48:28;;;;;;;1999.90;999.90;;;;;;;21.13;55.99;94875.19;4990464;28;20050;-69
2022/08/16 04:50:54;;;;;;;1999.90;999.90;;;;;;;21.15;55.82;94879.06;4991405;28;20482;-67
2022/08/16 04:53:19;;;;;;;1999.90;999.90;;;;;;;21.46;55.29;94893.19;4984650;28;20030;-67
2022/08/16 04:55:45;;;;;;;1999.90;999.90;;;;;;;21.10;55.20;94830.75;4989237;28;20545;-68
2022/08/16 04:58:10;;;;;;;1999.90;999.90;;;;;;;21.22;54.81;94852.06;4998408;28;20061;-68
2022/08/16 05:00:36;;;;;;;1999.90;999.90;;;;;;;21.15;54.84;94826.91;4992214;28;20029;-68
2022/08/16 05:03:09;;;;;;;1999.90;999.90;;;;;;;21.44;54.61;94863.78;4989703;28;20084;-67
2022/08/16 05:05:39;;;;;;;1999.90;999.90;;;;;;;21.56;54.70;94880.84;4990084;28;20030;-69
2022/08/16 05:08:05;;;;;;;1999.90;999.90;;;;;;;21.68;54.68;94905.63;4989821;28;20026;-70
2022/08/16 05:10:30;;;;;;;1999.90;999.90;;;;;;;21.60;54.78;94895.97;4989944;28;20037;-75
2022/08/16 05:12:57;;;;;;;1999.90;999.90;;;;;;;21.82;54.71;94904.16;4988918;28;20426;-80
2022/08/16 05:15:24;;;;;;;1999.90;999.90;;;;;;;21.87;54.42;94912.69;4999305;28;20145;-74
2022/08/16 05:17:49;;;;;;;1999.90;999.90;;;;;;;21.97;54.23;94911.19;5003424;28;20026;-74
2022/08/16 05:20:15;;;;;;;1999.90;999.90;;;;;;;22.05;54.12;94899.19;4996279;28;20475;-73
2022/08/16 05:22:41;;;;;;;1999.90;999.90;;;;;;;22.14;54.22;94907.75;4990635;28;20070;-83
2022/08/16 05:25:08;;;;;;;1999.90;999.90;;;;;;;22.18;54.16;94908.53;4991656;28;20061;-75
2022/08/16 05:27:35;;;;;;;1999.90;999.90;;;;;;;22.09;53.91;94889.13;4988887;28;20033;-73
2022/08/16 05:30:01;;;;;;;1999.90;999.90;;;;;;;22.11;53.89;94895.00;4989162;28;20391;-73
2022/08/16 05:32:26;;;;;;;1999.90;999.90;;;;;;;22.12;53.72;94903.91;4988771;28;20058;-75
2022/08/16 05:34:52;;;;;;;1999.90;999.90;;;;;;;22.16;53.74;94910.88;4990004;28;20034;-73
2022/08/16 05:37:17;;;;;;;1999.90;999.90;;;;;;;22.10;53.59;94896.09;4990593;28;20387;-75
2022/08/16 05:39:43;;;;;;;1999.90;999.90;;;;;;;22.26;53.77;94922.88;4986779;28;20018;-72
2022/08/16 05:42:08;;;;;;;1999.90;999.90;;;;;;;22.22;53.41;94900.44;4982640;28;20364;-74
2022/08/16 05:44:33;;;;;;;1999.90;999.90;;;;;;;22.35;53.19;94901.59;4988941;28;20475;-71
2022/08/16 05:47:00;;;;;;;1999.90;999.90;;;;;;;22.34;53.17;94891.94;4989044;28;20399;-72
2022/08/16 05:49:28;;;;;;;1999.90;999.90;;;;;;;22.53;53.07;94912.47;4990636;28;20038;-72
2022/08/16 05:51:54;;;;;;;1999.90;999.90;;;;;;;22.62;53.39;94907.44;4989038;28;20022;-71
2022/08/16 05:54:21;;;;;;;1999.90;999.90;;;;;;;22.74;52.68;94909.78;4991003;28;20053;-73
2022/08/16 05:56:47;;;;;;;1999.90;999.90;;;;;;;22.83;51.86;94902.03;4989662;28;20077;-72
2022/08/16 05:59:14;;;;;;;1999.90;999.90;;;;;;;23.03;51.62;94909.78;4990460;28;20034;-71
2022/08/16 06:01:40;;;;;;;1999.90;999.90;;;;;;;23.13;51.09;94911.69;4987717;28;20101;-71
2022/08/16 06:04:07;;;;;;;1999.90;999.90;;;;;;;23.30;51.00;94921.78;4988212;28;20423;-70
2022/08/16 06:06:32;;;;;;;1999.90;999.90;;;;;;;23.40;50.89;94906.63;4987799;28;20117;-71
2022/08/16 06:08:57;;;;;;;1999.90;999.90;;;;;;;23.54;50.31;94916.66;4987725;28;20121;-72
2022/08/16 06:11:23;;;;;;;1999.90;999.90;;;;;;;23.64;50.10;94910.44;4984520;28;20491;-72
2022/08/16 06:13:48;;;;;;;1999.90;999.90;;;;;;;23.79;49.86;94922.03;4987324;28;20054;-71
2022/08/16 06:16:13;;;;;;;1999.90;999.90;;;;;;;23.92;49.14;94925.88;4988764;28;20057;-70
2022/08/16 06:18:38;;;;;;;1999.90;999.90;;;;;;;24.03;49.08;94925.81;4989796;28;20026;-66
2022/08/16 06:21:04;;;;;;;1999.90;999.90;;;;;;;24.11;48.64;94921.91;4987902;28;20030;-68
2022/08/16 06:23:29;;;;;;;1999.90;999.90;;;;;;;24.23;48.83;94916.00;4988854;28;20552;-69
2022/08/16 06:25:55;;;;;;;1999.90;999.90;;;;;;;24.42;47.59;94920.22;4987670;28;20039;-70
2022/08/16 06:28:20;;;;;;;1999.90;999.90;;;;;;;24.54;46.86;94921.69;4988406;28;20018;-71
2022/08/16 06:30:45;;;;;;;1999.90;999.90;;;;;;;24.61;46.54;94916.19;4989606;28;20087;-73
2022/08/16 06:33:16;;;;;;;1999.90;999.90;;;;;;;24.71;46.35;94920.78;4988373;28;20034;-73
2022/08/16 06:35:41;;;;;;;1999.90;999.90;;;;;;;24.81;45.88;94921.88;4988307;28;20394;-73
2022/08/16 06:38:08;;;;;;;1999.90;999.90;;;;;;;24.86;45.62;94916.78;4990655;28;20026;-73
2022/08/16 06:40:33;;;;;;;1999.90;999.90;;;;;;;24.99;45.65;94925.22;4990720;28;20066;-72
2022/08/16 06:42:58;;;;;;;1999.90;999.90;;;;;;;25.04;45.16;94921.31;4989209;28;20061;-73
2022/08/16 06:45:24;;;;;;;1999.90;999.90;;;;;;;25.20;45.00;94940.63;4989424;28;20139;-73
2022/08/16 06:47:50;;;;;;;1999.90;999.90;;;;;;;25.29;45.09;94932.78;4989804;28;20560;-73
2022/08/16 06:50:17;;;;;;;1999.90;999.90;;;;;;;25.34;44.43;94931.56;4989801;28;20029;-72
2022/08/16 06:52:44;;;;;;;1999.90;999.90;;;;;;;25.41;43.87;94932.25;4988828;28;20034;-72
2022/08/16 06:55:11;;;;;;;1999.90;999.90;;;;;;;25.30;42.92;94931.59;4988753;28;20565;-72
2022/08/16 06:57:37;;;;;;;1999.90;999.90;;;;;;;25.44;42.83;94933.41;4989882;28;20480;-72
2022/08/16 07:00:11;;;;;;;1999.90;999.90;;;;;;;25.44;42.50;94921.72;4989713;28;20026;-72
2022/08/16 07:02:36;;;;;;;1999.90;999.90;;;;;;;25.60;42.18;94930.91;4988428;28;20096;-71
2022/08/16 07:05:03;;;;;;;1999.90;999.90;;;;;;;25.61;41.79;94928.94;4990047;28;20485;-72
2022/08/16 07:07:28;;;;;;;1999.90;999.90;;;;;;;25.75;42.01;94933.50;4989709;28;20030;-72
2022/08/16 07:09:54;;;;;;;1999.90;999.90;;;;;;;25.74;41.55;94916.31;4989659;28;20026;-72
2022/08/16 07:12:19;;;;;;;1999.90;999.90;;;;;;;25.79;41.66;94909.69;4989773;28;20771;-72
2022/08/16 07:14:46;;;;;;;1999.90;999.90;;;;;;;25.92;41.33;94924.34;4988542;28;20045;-72
2022/08/16 07:17:12;;;;;;;1999.90;999.90;;;;;;;25.71;40.44;94922.59;4989293;28;20037;-72
2022/08/16 07:19:39;;;;;;;1999.90;999.90;;;;;;;25.97;40.79;94923.13;4988028;28;20030;-72
2022/08/16 07:22:04;;;;;;;1999.90;999.90;;;;;;;25.89;40.08;94925.13;4988455;28;20510;-72
2022/08/16 07:24:30;;;;;;;1999.90;999.90;;;;;;;26.11;39.82;94926.44;4992067;28;20030;-72
2022/08/16 07:26:57;;;;;;;1999.90;999.90;;;;;;;26.13;38.82;94926.00;4993761;28;20031;-72
2022/08/16 07:29:22;;;;;;;1999.90;999.90;;;;;;;26.28;38.78;94918.41;4992401;28;20024;-72
2022/08/16 07:31:47;;;;;;;1999.90;999.90;;;;;;;26.33;38.80;94916.00;4993798;28;20109;-72
2022/08/16 07:34:13;;;;;;;1999.90;999.90;;;;;;;26.26;38.42;94915.31;4993522;28;20029;-72
2022/08/16 07:36:40;;;;;;;1999.90;999.90;;;;;;;26.47;37.85;94917.78;4988618;28;20598;-72
2022/08/16 07:39:05;;;;;;;1999.90;999.90;;;;;;;26.38;38.14;94898.41;4993177;28;20028;-72
2022/08/16 07:41:30;;;;;;;1999.90;999.90;;;;;;;26.51;37.43;94910.31;4993429;28;20027;-72
2022/08/16 07:43:56;;;;;;;1999.90;999.90;;;;;;;26.55;37.86;94899.34;4990952;28;20033;-73
2022/08/16 07:46:22;;;;;;;1999.90;999.90;;;;;;;26.51;37.72;94888.50;4992183;28;20037;-72
2022/08/16 07:48:47;;;;;;;1999.90;999.90;;;;;;;26.87;37.82;94924.22;4991520;28;20033;-71
2022/08/16 07:51:13;;;;;;;1999.90;999.90;;;;;;;26.03;37.65;94867.72;4992472;28;20038;-71
2022/08/16 07:53:38;;;;;;;1999.90;999.90;;;;;;;25.93;37.40;94896.66;4993439;28;20033;-71
2022/08/16 07:56:05;;;;;;;1999.90;999.90;;;;;;;26.58;37.38;94914.91;4991289;28;20026;-74
2022/08/16 07:58:31;;;;;;;1999.90;999.90;;;;;;;26.80;37.16;94921.56;4993045;28;20026;-73
2022/08/16 08:00:57;;;;;;;1999.90;999.90;;;;;;;26.55;36.91;94866.63;4993049;28;20474;-73
2022/08/16 08:03:22;;;;;;;1999.90;999.90;;;;;;;26.82;36.29;94919.22;4992636;28;20169;-73
2022/08/16 08:05:48;;;;;;;1999.90;999.90;;;;;;;26.55;37.00;94875.56;4991271;28;20550;-73
2022/08/16 08:08:13;;;;;;;1999.90;999.90;;;;;;;26.21;37.44;94907.59;4993184;28;20467;-73
2022/08/16 08:10:40;;;;;;;1999.90;999.90;;;;;;;26.75;36.71;94910.34;4993069;28;20379;-74
2022/08/16 08:13:06;;;;;;;1999.90;999.90;;;;;;;26.67;36.64;94899.56;4992685;28;20034;-73
2022/08/16 08:15:31;;;;;;;1999.90;999.90;;;;;;;27.08;36.22;94930.53;4992087;28;20105;-73
2022/08/16 08:17:57;;;;;;;1999.90;999.90;;;;;;;26.58;36.25;94876.72;4992663;28;20114;-72
2022/08/16 08:20:25;;;;;;;1999.90;999.90;;;;;;;26.76;35.85;94877.19;4992927;28;20061;-73
2022/08/16 08:22:52;;;;;;;1999.90;999.90;;;;;;;27.19;35.76;94926.44;4992340;28;20018;-75
2022/08/16 08:25:19;;;;;;;1999.90;999.90;;;;;;;27.29;35.66;94919.25;4991837;28;20030;-75
2022/08/16 08:27:44;;;;;;;1999.90;999.90;;;;;;;27.27;35.29;94899.00;4991396;28;20117;-75
2022/08/16 08:30:11;;;;;;;1999.90;999.90;;;;;;;27.43;34.83;94905.31;4993289;28;20101;-75
2022/08/16 08:32:36;;;;;;;1999.90;999.90;;;;;;;27.55;35.29;94903.19;4992256;28;20022;-74
2022/08/16 08:35:03;;;;;;;1999.90;999.90;;;;;;;26.65;36.29;94948.31;4991242;28;20471;-76
2022/08/16 08:37:29;;;;;;;1999.90;999.90;;;;;;;26.02;36.56;94887.22;4991657;28;20093;-74
2022/08/16 08:39:55;;;;;;;1999.90;999.90;;;;;;;26.04;36.30;94882.13;4990782;28;20022;-75
2022/08/16 08:42:20;;;;;;;1999.90;999.90;;;;;;;26.94;35.79;94915.91;4990838;28;20031;-75
2022/08/16 08:44:45;;;;;;;1999.90;999.90;;;;;;;27.22;35.29;94900.25;4993109;28;20076;-75
2022/08/16 08:47:11;;;;;;;1999.90;999.90;;;;;;;27.20;35.20;94856.22;4991499;28;20034;-75
2022/08/16 08:49:37;;;;;;;1999.90;999.90;;;;;;;27.50;34.33;94870.88;4991231;28;20445;-74
2022/08/16 08:52:05;;;;;;;1999.90;999.90;;;;;;;27.61;34.88;94855.03;4992011;28;20037;-75
2022/08/16 08:54:32;;;;;;;1999.90;999.90;;;;;;;28.10;34.06;94924.38;4991610;28;20105;-74
2022/08/16 08:56:58;;;;;;;1999.90;999.90;;;;;;;28.03;33.79;94896.38;4990736;28;20395;-75
2022/08/16 08:59:23;;;;;;;1999.90;999.90;;;;;;;27.93;33.98;94882.50;4995344;28;20025;-74
2022/08/16 09:01:49;;;;;;;1999.90;999.90;;;;;;;27.27;34.64;94920.84;5011715;28;20367;-74
2022/08/16 09:04:16;;;;;;;1999.90;999.90;;;;;;;26.65;35.37;94933.88;5011291;28;20026;-74
2022/08/16 09:06:42;;;;;;;1999.90;999.90;;;;;;;27.08;35.11;94892.31;4991247;28;20399;-76
2022/08/16 09:09:08;;;;;;;1999.90;999.90;;;;;;;27.69;34.45;94905.59;4990622;28;20031;-74
2022/08/16 09:11:35;;;;;;;1999.90;999.90;;;;;;;27.32;34.14;94877.44;4990660;28;20180;-76
2022/08/16 09:14:01;;;;;;;1999.90;999.90;;;;;;;27.12;34.76;94862.97;4991867;28;20120;-76
2022/08/16 09:16:26;;;;;;;1999.90;999.90;;;;;;;27.77;33.43;94909.03;4991912;28;20085;-76
2022/08/16 09:18:51;;;;;;;1999.90;999.90;;;;;;;28.10;34.11;94918.09;4991326;28;20141;-75
2022/08/16 09:21:17;;;;;;;1999.90;999.90;;;;;;;27.32;33.95;94863.78;4990504;28;20347;-74
2022/08/16 09:23:44;;;;;;;1999.90;999.90;;;;;;;27.87;34.48;94914.28;4990161;28;20026;-75
2022/08/16 09:26:11;;;;;;;1999.90;999.90;;;;;;;27.48;33.83;94852.16;4990741;28;20026;-75
2022/08/16 09:28:37;;;;;;;1999.90;999.90;;;;;;;27.17;34.33;94867.94;4991617;28;20034;-74
2022/08/16 09:31:06;;;;;;;1999.90;999.90;;;;;;;27.95;33.84;94893.81;4987446;28;20033;-75
2022/08/16 09:33:32;;;;;;;1999.90;999.90;;;;;;;28.14;33.70;94884.03;4991675;28;20030;-74
2022/08/16 09:35:57;;;;;;;1999.90;999.90;;;;;;;28.14;33.48;94894.19;4991883;28;20031;-75
2022/08/16 09:38:24;;;;;;;1999.90;999.90;;;;;;;28.22;32.62;94893.63;4992018;28;20042;-75
2022/08/16 09:40:49;;;;;;;1999.90;999.90;;;;;;;26.92;34.17;94890.19;4990635;28;20061;-75
2022/08/16 09:43:18;;;;;;;1999.90;999.90;;;;;;;26.75;34.44;94870.19;4991354;28;20058;-76
2022/08/16 09:45:45;;;;;;;1999.90;999.90;;;;;;;26.72;34.87;94922.88;4987369;28;20085;-75
2022/08/16 09:48:14;;;;;;;1999.90;999.90;;;;;;;26.95;34.90;94922.13;5001136;28;20026;-74
2022/08/16 09:50:42;;;;;;;1999.90;999.90;;;;;;;27.54;33.90;94896.16;5011302;28;20062;-75
2022/08/16 09:53:21;;;;;;;1999.90;999.90;;;;;;;28.15;33.22;94903.94;5010689;28;20107;-74
2022/08/16 09:55:49;;;;;;;1999.90;999.90;;;;;;;28.31;32.85;94893.06;4994756;28;20034;-74
2022/08/16 09:58:15;;;;;;;1999.90;999.90;;;;;;;28.29;32.76;94870.81;4991550;28;20031;-73
2022/08/16 10:00:40;;;;;;;1999.90;999.90;;;;;;;28.64;32.40;94890.38;4989187;28;20027;-76
2022/08/16 10:03:06;;;;;;;1999.90;999.90;;;;;;;27.80;33.01;94911.69;4989573;28;20030;-74
2022/08/16 10:05:35;;;;;;;1999.90;999.90;;;;;;;27.68;32.46;94857.63;4989691;28;20161;-75
2022/08/16 10:08:03;;;;;;;1999.90;999.90;;;;;;;28.30;32.13;94880.53;4989723;28;20105;-76
2022/08/16 10:10:28;;;;;;;1999.90;999.90;;;;;;;28.80;32.13;94906.81;4990816;28;20112;-75
2022/08/16 10:13:11;;;;;;;1999.90;999.90;;;;;;;28.99;32.46;94886.81;4990559;28;20062;-77
2022/08/16 10:15:39;;;;;;;1999.90;999.90;;;;;;;29.33;31.37;94899.28;4990394;28;20161;-75
2022/08/16 10:18:08;;;;;;;1999.90;999.90;;;;;;;29.54;30.59;94902.69;4992196;28;20105;-78
2022/08/16 10:20:40;;;;;;;1999.90;999.90;;;;;;;29.48;30.20;94861.28;4989914;28;20124;-75
2022/08/16 10:23:08;;;;;;;1999.90;999.90;;;;;;;29.95;29.82;94888.22;4989665;28;20037;-77
2022/08/16 10:25:38;;;;;;;1999.90;999.90;;;;;;;30.11;29.35;94885.38;4990193;28;20022;-73
2022/08/16 10:28:04;;;;;;;1999.90;999.90;;;;;;;30.29;28.88;94890.38;4990245;28;20109;-78
2022/08/16 10:30:30;;;;;;;1999.90;999.90;;;;;;;30.09;29.12;94881.53;4989469;28;20173;-77
2022/08/16 10:32:55;;;;;;;1999.90;999.90;;;;;;;30.34;28.74;94881.59;4991044;28;20062;-79
2022/08/16 10:35:22;;;;;;;1999.90;999.90;;;;;;;30.35;27.88;94896.06;5008165;28;20026;-78
2022/08/16 10:37:47;;;;;;;1999.90;999.90;;;;;;;30.29;28.10;94887.63;5009865;28;20021;-81
2022/08/16 10:40:13;;;;;;;1999.90;999.90;;;;;;;30.04;27.50;94871.88;5010589;28;20121;-80
2022/08/16 10:42:38;;;;;;;1999.90;999.90;;;;;;;28.16;28.12;94853.53;5010389;28;20030;-79
2022/08/16 10:45:04;;;;;;;1999.90;999.90;;;;;;;27.83;28.37;94869.84;5008027;28;20084;-81
2022/08/16 10:47:37;;;;;;;1999.90;999.90;;;;;;;28.38;27.76;94903.09;4999002;28;20485;-80
2022/08/16 10:50:05;;;;;;;1999.90;999.90;;;;;;;29.05;27.94;94899.97;5009775;28;20026;-74
2022/08/16 10:52:32;;;;;;;1999.90;999.90;;;;;;;28.91;28.42;94901.81;4992900;28;20034;-80